createdAt,value
2019-06-07T00:01:53.314Z,95080.66
2019-06-07T00:06:55.158Z,95080.66
2019-06-07T00:11:57.057Z,95075.08
2019-06-07T00:17:00.200Z,95084.30
2019-06-07T00:22:30.051Z,95077.42
2019-06-07T00:27:05.807Z,95074.95
2019-06-07T00:32:09.153Z,95072.77
2019-06-07T00:37:12.715Z,95074.02
2019-06-07T00:42:18.549Z,95075.72
2019-06-07T00:47:23.102Z,95079.34
2019-06-07T00:53:11.513Z,95077.46
2019-06-07T00:57:26.330Z,95073.66
2019-06-07T01:02:31.370Z,95071.86
2019-06-07T01:07:31.903Z,95076.12
2019-06-07T01:12:33.778Z,95076.35
2019-06-07T01:17:50.103Z,95078.16
2019-06-07T01:22:39.530Z,95077.08
2019-06-07T01:27:41.345Z,95072.31
2019-06-07T01:32:43.140Z,95067.95
2019-06-07T01:37:44.978Z,95069.97
2019-06-07T01:42:46.934Z,95055.61
2019-06-07T01:47:48.794Z,95056.29
2019-06-07T01:52:50.593Z,95066.62
2019-06-07T01:57:52.439Z,95064.14
2019-06-07T02:02:54.280Z,95065.72
2019-06-07T02:07:56.099Z,95069.13
2019-06-07T02:12:57.917Z,95069.34
2019-06-07T02:17:59.762Z,95070.56
2019-06-07T02:23:01.637Z,95075.64
2019-06-07T02:28:26.596Z,95082.57
2019-06-07T02:33:07.205Z,95085.27
2019-06-07T02:38:09.017Z,95085.77
2019-06-07T02:43:10.979Z,95087.30
2019-06-07T02:48:12.832Z,95089.12
2019-06-07T02:53:15.755Z,95085.41
2019-06-07T02:58:17.617Z,95097.00
2019-06-07T03:03:19.606Z,95111.98
2019-06-07T03:08:21.482Z,95113.58
2019-06-07T03:13:23.577Z,95124.02
2019-06-07T03:18:29.087Z,95134.52
2019-06-07T03:23:32.419Z,95139.98
2019-06-07T03:28:37.478Z,95149.94
2019-06-07T03:33:42.937Z,95154.44
2019-06-07T03:38:42.515Z,95160.41
2019-06-07T03:43:44.512Z,95156.28
2019-06-07T03:48:46.433Z,95163.31
2019-06-07T03:53:48.226Z,95155.94
2019-06-07T03:58:50.718Z,95165.58
2019-06-07T04:03:52.772Z,95164.44
2019-06-07T04:08:54.628Z,95176.75
2019-06-07T04:13:56.522Z,95174.94
2019-06-07T04:18:58.366Z,95176.73
2019-06-07T04:24:00.146Z,95177.36
2019-06-07T04:29:32.240Z,95181.70
2019-06-07T04:34:05.739Z,95183.13
2019-06-07T04:39:07.594Z,95180.98
2019-06-07T04:44:10.841Z,95181.55
2019-06-07T04:49:14.585Z,95189.42
2019-06-07T04:54:16.449Z,95189.22
2019-06-07T05:00:00.421Z,95190.53
2019-06-07T05:04:22.164Z,95199.33
2019-06-07T05:09:24.029Z,95202.36
2019-06-07T05:14:25.911Z,95208.33
2019-06-07T05:19:27.712Z,95214.86
2019-06-07T05:24:30.720Z,95212.02
2019-06-07T05:29:36.676Z,95212.28
2019-06-07T05:34:39.375Z,95214.67
2019-06-07T05:39:45.584Z,95210.78
2019-06-07T05:44:45.890Z,95221.50
2019-06-07T05:49:47.890Z,95218.42
2019-06-07T05:54:49.689Z,95217.08
2019-06-07T05:59:51.537Z,95217.17
2019-06-07T06:04:53.377Z,95225.31
2019-06-07T06:09:55.163Z,95216.58
2019-06-07T06:14:57.015Z,95215.67
2019-06-07T06:19:58.899Z,95212.41
2019-06-07T06:25:30.644Z,95215.02
2019-06-07T06:30:08.127Z,95218.14
2019-06-07T06:35:10.355Z,95216.24
2019-06-07T06:40:12.725Z,95209.97
2019-06-07T06:45:15.049Z,95204.90
2019-06-07T06:50:17.172Z,95191.11
2019-06-07T06:55:19.087Z,95190.44
2019-06-07T07:00:50.355Z,95186.70
2019-06-07T07:05:50.835Z,95189.03
2019-06-07T07:10:53.280Z,95185.64
2019-06-07T07:15:57.893Z,95195.20
2019-06-07T07:20:58.937Z,95194.43
2019-06-07T07:26:00.733Z,95199.83
2019-06-07T07:31:02.563Z,95200.77
2019-06-07T07:36:18.931Z,95196.67
2019-06-07T07:41:15.218Z,95200.13
2019-06-07T07:46:29.082Z,95198.66
2019-06-07T07:51:16.621Z,95192.09
2019-06-07T07:56:18.564Z,95187.22
2019-06-07T08:01:21.541Z,95191.46
2019-06-07T08:06:23.409Z,95190.38
2019-06-07T08:11:25.221Z,95199.47
2019-06-07T08:16:27.018Z,95209.35
2019-06-07T08:21:28.967Z,95199.16
2019-06-07T08:26:30.925Z,95195.77
2019-06-07T08:31:33.014Z,95194.69
2019-06-07T08:36:41.902Z,95207.20
2019-06-07T08:41:53.400Z,95205.33
2019-06-07T08:46:42.705Z,95208.07
2019-06-07T08:51:44.547Z,95207.09
2019-06-07T08:56:46.400Z,95205.73
2019-06-07T09:01:48.065Z,95205.72
2019-06-07T09:11:54.709Z,95199.23
2019-06-07T09:17:01.304Z,95195.97
2019-06-07T09:22:07.075Z,95193.27
2019-06-07T09:27:07.886Z,95188.58
2019-06-07T09:32:12.123Z,95189.63
2019-06-07T09:38:03.146Z,95189.20
2019-06-07T09:42:18.306Z,95182.66
2019-06-07T09:47:31.858Z,95185.36
2019-06-07T09:52:23.679Z,95187.49
2019-06-07T09:57:25.637Z,95180.37
2019-06-07T10:02:27.339Z,95186.08
2019-06-07T10:07:31.962Z,95180.22
2019-06-07T10:12:32.979Z,95178.70
2019-06-07T10:17:35.937Z,95178.48
2019-06-07T10:22:37.704Z,95177.58
2019-06-07T10:27:39.426Z,95177.78
2019-06-07T10:32:41.444Z,95178.25
2019-06-07T10:37:43.315Z,95170.25
2019-06-07T10:42:45.120Z,95165.92
2019-06-07T10:47:47.445Z,95168.22
2019-06-07T10:52:49.497Z,95165.49
2019-06-07T10:57:51.489Z,95163.06
2019-06-07T11:02:55.321Z,95156.86
2019-06-07T11:08:00.463Z,95158.80
2019-06-07T11:13:00.943Z,95150.92
2019-06-07T11:18:02.960Z,95146.95
2019-06-07T11:23:06.687Z,95143.70
2019-06-07T11:28:10.412Z,95146.41
2019-06-07T11:33:15.756Z,95138.47
2019-06-07T11:38:16.679Z,95140.66
2019-06-07T11:43:19.039Z,95131.34
2019-06-07T11:48:21.343Z,95122.63
2019-06-07T11:53:23.378Z,95128.72
2019-06-07T11:58:25.370Z,95113.64
2019-06-07T12:03:27.351Z,95112.67
2019-06-07T12:08:29.397Z,95109.40
2019-06-07T12:13:31.755Z,95104.05
2019-06-07T12:18:33.827Z,95105.53
2019-06-07T12:23:35.792Z,95097.87
2019-06-07T12:28:37.727Z,95096.42
2019-06-07T12:33:39.612Z,95088.72
2019-06-07T12:38:41.222Z,95094.08
2019-06-07T12:43:43.088Z,95084.30
2019-06-07T12:48:44.731Z,95078.22
2019-06-07T12:53:47.870Z,95075.12
2019-06-07T12:58:49.839Z,95075.98
2019-06-07T13:03:51.743Z,95078.06
2019-06-07T13:08:53.383Z,95074.69
2019-06-07T13:13:55.357Z,95081.46
2019-06-07T13:18:57.162Z,95072.11
2019-06-07T13:23:58.811Z,95067.66
2019-06-07T13:29:01.021Z,95068.34
2019-06-07T13:34:03.048Z,95057.34
2019-06-07T13:39:05.614Z,95050.70
2019-06-07T13:44:07.477Z,95060.07
2019-06-07T13:49:09.412Z,95062.00
2019-06-07T13:54:11.106Z,95065.50
2019-06-07T13:59:14.054Z,95055.20
2019-06-07T14:04:15.747Z,95044.95
2019-06-07T14:09:17.555Z,95046.30
2019-06-07T14:14:20.161Z,95053.63
2019-06-07T14:19:24.361Z,95057.69
2019-06-07T14:24:27.062Z,95053.89
2019-06-07T14:29:30.124Z,95055.52
2019-06-07T14:34:32.676Z,95059.84
2019-06-07T14:39:34.803Z,95063.64
2019-06-07T14:44:36.687Z,95059.59
2019-06-07T14:49:38.579Z,95062.30
2019-06-07T14:54:40.343Z,95063.13
2019-06-07T14:59:43.375Z,95058.25
2019-06-07T15:04:45.559Z,95054.73
2019-06-07T15:09:49.828Z,95060.70
2019-06-07T15:14:52.716Z,95056.59
2019-06-07T15:19:55.537Z,95069.61
2019-06-07T15:24:57.722Z,95073.42
2019-06-07T15:29:59.751Z,95070.14
2019-06-07T15:35:02.929Z,95071.50
2019-06-07T15:40:05.322Z,95063.09
2019-06-07T15:45:11.280Z,95069.87
2019-06-07T15:50:13.789Z,95069.87
2019-06-07T15:55:17.535Z,95067.71
2019-06-07T16:00:19.966Z,95056.23
2019-06-07T16:05:22.213Z,95056.44
2019-06-07T16:10:24.509Z,95062.33
2019-06-07T16:15:26.517Z,95059.86
2019-06-07T16:20:28.225Z,95060.10
2019-06-07T16:25:30.133Z,95071.27
2019-06-07T16:30:32.041Z,95080.59
2019-06-07T16:35:34.879Z,95082.67
2019-06-07T16:40:38.353Z,95087.66
2019-06-07T16:45:40.816Z,95084.73
2019-06-07T16:50:43.059Z,95083.34
2019-06-07T16:55:47.235Z,95089.03
2019-06-07T17:00:49.048Z,95086.09
2019-06-07T17:05:50.917Z,95089.47
2019-06-07T17:10:52.767Z,95098.19
2019-06-07T17:15:54.710Z,95097.66
2019-06-07T17:20:56.551Z,95102.11
2019-06-07T17:25:58.434Z,95105.97
2019-06-07T17:31:01.291Z,95109.91
2019-06-07T17:36:03.368Z,95116.00
2019-06-07T17:41:05.306Z,95123.70
2019-06-07T17:46:07.244Z,95121.67
2019-06-07T17:51:09.183Z,95124.31
2019-06-07T17:56:11.102Z,95132.55
2019-06-07T18:01:13.129Z,95134.38
2019-06-07T18:06:16.085Z,95140.36
2019-06-07T18:11:18.157Z,95142.69
2019-06-07T18:16:20.150Z,95145.47
2019-06-07T18:21:22.060Z,95149.03
2019-06-07T18:26:23.998Z,95153.92
2019-06-07T18:31:25.906Z,95162.79
2019-06-07T18:36:27.943Z,95169.48
2019-06-07T18:41:29.883Z,95176.20
2019-06-07T18:46:31.952Z,95182.69
2019-06-07T18:51:34.218Z,95198.78
2019-06-07T18:56:36.770Z,95203.12
2019-06-07T19:01:40.533Z,95215.22
2019-06-07T19:06:43.660Z,95218.38
2019-06-07T19:11:45.905Z,95216.75
2019-06-07T19:16:49.335Z,95231.16
2019-06-07T19:21:52.040Z,95233.27
2019-06-07T19:26:54.484Z,95247.16
2019-06-07T19:31:59.081Z,95243.84
2019-06-07T19:37:02.125Z,95258.88
2019-06-07T19:42:05.315Z,95259.52
2019-06-07T19:47:07.323Z,95262.83
2019-06-07T19:52:09.275Z,95263.28
2019-06-07T19:57:12.684Z,95260.56
2019-06-07T20:02:18.268Z,95259.44
2019-06-07T20:07:21.247Z,95262.77
2019-06-07T20:12:24.031Z,95266.50
2019-06-07T20:17:26.326Z,95266.28
2019-06-07T20:22:28.410Z,95269.27
2019-06-07T20:27:30.416Z,95275.81
2019-06-07T20:32:32.328Z,95258.52
2019-06-07T20:37:34.395Z,95258.52
2019-06-07T20:42:36.317Z,95277.93
2019-06-07T20:47:39.237Z,95283.27
2019-06-07T20:52:41.164Z,95285.22
2019-06-07T20:57:43.120Z,95290.43
2019-06-07T21:02:45.173Z,95291.14
2019-06-07T21:07:47.141Z,95290.58
2019-06-07T21:12:49.192Z,95290.55
2019-06-07T21:17:51.082Z,95298.26
2019-06-07T21:22:52.943Z,95297.95
2019-06-07T21:27:54.877Z,95298.25
2019-06-07T21:32:56.814Z,95302.91
2019-06-07T21:37:58.706Z,95296.51
2019-06-07T21:43:00.864Z,95296.05
2019-06-07T21:48:05.212Z,95295.08
2019-06-07T21:53:08.626Z,95293.67
2019-06-07T21:58:11.240Z,95289.66
2019-06-07T22:03:14.662Z,95288.02
2019-06-07T22:08:16.646Z,95291.34
2019-06-07T22:13:18.523Z,95293.56
2019-06-07T22:18:20.486Z,95297.86
2019-06-07T22:23:22.440Z,95297.16
2019-06-07T22:28:24.468Z,95295.56
2019-06-07T22:33:26.451Z,95293.77
2019-06-07T22:38:28.296Z,95300.27
2019-06-07T22:43:30.113Z,95300.72
2019-06-07T22:48:31.979Z,95301.03
2019-06-07T22:53:36.684Z,95297.19
2019-06-07T22:58:38.666Z,95293.38
2019-06-07T23:03:40.479Z,95294.40
2019-06-07T23:08:42.360Z,95299.84
2019-06-07T23:13:44.203Z,95291.42
2019-06-07T23:18:46.095Z,95289.49
2019-06-07T23:23:47.967Z,95293.08
2019-06-07T23:28:49.769Z,95280.86
2019-06-07T23:33:51.763Z,95284.23
2019-06-07T23:38:53.794Z,95272.34
2019-06-07T23:43:55.733Z,95272.95
2019-06-07T23:48:57.961Z,95271.85
2019-06-07T23:53:59.846Z,95275.64
2019-06-07T23:59:01.824Z,95272.21
